Time;durP1;ratioP1;P1;durP2;ratioP2;P2;SDS_P1;SDS_P2;PMS_P1;PMS_P2;Temp;Humidity;BMP_temperature;BMP_pressure;BME280_temperature;BME280_humidity;BME280_pressure;Samples;Min_cycle;Max_cycle;Signal;HPM_P1;HPM_P2
2024/01/23 00:01:45;;;;;;;10.35;1.52;;;;;;;4.72;100.00;101212.00;5015589;28;20553;-74
2024/01/23 00:04:32;;;;;;;14.00;1.80;;;;;;;4.70;100.00;101208.53;4996818;28;20107;-74
2024/01/23 00:07:18;;;;;;;12.88;1.92;;;;;;;4.67;100.00;101220.81;5012972;28;20160;-75
2024/01/23 00:10:07;;;;;;;14.40;2.50;;;;;;;4.66;100.00;101226.94;5022907;28;20045;-75
2024/01/23 00:12:53;;;;;;;6.32;1.70;;;;;;;4.63;100.00;101233.09;5009344;28;20121;-74
2024/01/23 00:15:38;;;;;;;13.48;1.90;;;;;;;4.61;100.00;101232.25;5012806;28;20099;-73
2024/01/23 00:18:24;;;;;;;12.20;2.83;;;;;;;4.61;100.00;101242.75;5013606;28;20025;-74
2024/01/23 00:21:10;;;;;;;9.90;2.10;;;;;;;4.59;100.00;101270.75;5013772;28;20045;-74
2024/01/23 00:23:56;;;;;;;14.25;2.28;;;;;;;4.63;100.00;101275.06;5012120;28;20029;-74
2024/01/23 00:26:41;;;;;;;10.27;1.65;;;;;;;4.65;100.00;101264.56;5015808;28;20041;-74
2024/01/23 00:29:27;;;;;;;11.40;2.42;;;;;;;4.65;100.00;101267.19;5012304;28;20037;-75
2024/01/23 00:32:13;;;;;;;12.18;2.00;;;;;;;4.64;100.00;101261.09;5011908;28;20037;-76
2024/01/23 00:34:59;;;;;;;9.98;1.73;;;;;;;4.65;100.00;101267.19;5013614;28;20037;-75
2024/01/23 00:37:45;;;;;;;9.65;1.70;;;;;;;4.62;100.00;101263.72;5027165;28;20061;-75
2024/01/23 00:40:31;;;;;;;8.93;1.65;;;;;;;4.68;100.00;101272.41;5014111;28;20131;-76
2024/01/23 00:43:16;;;;;;;7.05;2.08;;;;;;;4.67;100.00;101270.63;5010810;28;20045;-75
2024/01/23 00:46:03;;;;;;;13.00;2.15;;;;;;;4.66;100.00;101267.16;5012105;28;20085;-76
2024/01/23 00:48:49;;;;;;;11.25;2.45;;;;;;;4.69;100.00;101280.22;5010879;28;20042;-76
2024/01/23 00:51:35;;;;;;;6.22;1.50;;;;;;;4.66;100.00;101290.78;5010583;28;20116;-76
2024/01/23 00:54:21;;;;;;;9.05;1.75;;;;;;;4.65;100.00;101273.31;5009672;28;21011;-76
2024/01/23 00:57:06;;;;;;;13.27;2.33;;;;;;;4.61;100.00;101288.22;4996508;28;20040;-76
2024/01/23 00:59:52;;;;;;;8.43;1.90;;;;;;;4.57;100.00;101283.88;5009127;28;20042;-76
2024/01/23 01:02:41;;;;;;;11.27;2.00;;;;;;;4.56;100.00;101304.88;5011756;28;20171;-75
2024/01/23 01:05:26;;;;;;;7.50;1.83;;;;;;;4.54;100.00;101307.53;5010424;28;20045;-75
2024/01/23 01:08:12;;;;;;;9.15;2.00;;;;;;;4.54;100.00;101322.41;5000400;28;20053;-75
2024/01/23 01:10:59;;;;;;;8.23;1.92;;;;;;;4.55;100.00;101313.63;5013225;28;20046;-75
2024/01/23 01:13:48;;;;;;;11.27;2.40;;;;;;;4.56;100.00;101315.38;5010631;28;20029;-75
2024/01/23 01:16:33;;;;;;;10.85;1.80;;;;;;;4.55;100.00;101324.13;5011159;28;20103;-75
2024/01/23 01:19:19;;;;;;;10.90;1.92;;;;;;;4.53;100.00;101331.16;5010977;28;20400;-75
2024/01/23 01:22:05;;;;;;;5.35;2.00;;;;;;;4.47;100.00;101338.22;5008479;28;20041;-76
2024/01/23 01:24:52;;;;;;;9.88;1.80;;;;;;;4.46;100.00;101339.09;5007910;28;21453;-75
2024/01/23 01:27:38;;;;;;;9.60;1.90;;;;;;;4.48;100.00;101344.34;5006814;28;20119;-74
2024/01/23 01:30:29;;;;;;;12.27;2.42;;;;;;;4.45;100.00;101331.25;5009771;28;20041;-75
2024/01/23 01:33:15;;;;;;;15.25;2.25;;;;;;;4.44;100.00;101338.25;5010490;28;20048;-75
2024/01/23 01:36:01;;;;;;;15.82;2.58;;;;;;;4.41;100.00;101338.28;5007867;28;20129;-75
2024/01/23 01:38:47;;;;;;;9.45;1.83;;;;;;;4.40;100.00;101344.41;5009573;28;20110;-75
2024/01/23 01:41:32;;;;;;;13.02;2.28;;;;;;;4.38;100.00;101335.72;5004254;28;20056;-76
2024/01/23 01:44:18;;;;;;;7.63;2.00;;;;;;;4.40;100.00;101346.19;5006566;28;20147;-76
2024/01/23 01:47:05;;;;;;;11.20;2.30;;;;;;;4.40;100.00;101351.44;4993792;28;20049;-75
2024/01/23 01:49:53;;;;;;;10.05;2.58;;;;;;;4.37;100.00;101362.81;5007353;28;20056;-76
2024/01/23 01:52:39;;;;;;;18.08;3.35;;;;;;;4.36;100.00;101371.53;5006321;28;20087;-75
2024/01/23 01:55:25;;;;;;;16.15;2.85;;;;;;;4.37;100.00;101377.66;5006681;28;20048;-75
2024/01/23 01:58:11;;;;;;;8.88;1.42;;;;;;;4.38;100.00;101396.00;5007860;28;20064;-75
2024/01/23 02:00:59;;;;;;;18.58;2.63;;;;;;;4.40;100.00;101391.59;5005029;28;20958;-75
2024/01/23 02:03:44;;;;;;;10.15;3.17;;;;;;;4.39;100.00;101389.00;4991448;28;20064;-75
2024/01/23 02:06:32;;;;;;;10.48;2.25;;;;;;;4.40;100.00;101406.50;4992689;28;20037;-75
2024/01/23 02:09:18;;;;;;;7.82;2.28;;;;;;;4.40;100.00;101398.63;5006201;28;20057;-76
2024/01/23 02:12:07;;;;;;;11.30;2.00;;;;;;;4.39;100.00;101402.97;5006447;28;20041;-74
2024/01/23 02:14:53;;;;;;;8.05;2.20;;;;;;;4.38;100.00;101411.75;5006276;28;20456;-75
2024/01/23 02:17:39;;;;;;;11.63;2.30;;;;;;;4.39;100.00;101415.22;4993015;28;20045;-75
2024/01/23 02:20:25;;;;;;;14.68;2.10;;;;;;;4.39;100.00;101418.72;5008125;28;20037;-75
2024/01/23 02:23:15;;;;;;;12.38;2.30;;;;;;;4.39;100.00;101429.19;5005659;28;20042;-75
2024/01/23 02:26:00;;;;;;;9.90;1.77;;;;;;;4.38;100.00;101431.84;5003846;28;20044;-75
2024/01/23 02:28:46;;;;;;;20.75;2.95;;;;;;;4.38;100.00;101424.84;5010311;28;20121;-75
2024/01/23 02:31:32;;;;;;;11.27;1.88;;;;;;;4.35;100.00;101424.88;5010588;28;20459;-76
2024/01/23 02:34:21;;;;;;;12.27;2.03;;;;;;;4.33;100.00;101429.25;5010287;28;20045;-75
2024/01/23 02:37:06;;;;;;;7.88;1.67;;;;;;;4.34;100.00;101437.13;5004360;28;20111;-75
2024/01/23 02:39:53;;;;;;;14.15;2.22;;;;;;;4.35;100.00;101444.09;5005446;28;20053;-73
2024/01/23 02:42:38;;;;;;;14.10;2.05;;;;;;;4.38;100.00;101455.44;5009956;28;20269;-73
2024/01/23 02:45:24;;;;;;;11.85;2.00;;;;;;;4.41;100.00;101456.28;5008619;28;20037;-72
2024/01/23 02:48:10;;;;;;;16.90;2.97;;;;;;;4.43;100.00;101459.75;5007156;28;20400;-73
2024/01/23 02:50:56;;;;;;;14.65;2.40;;;;;;;4.47;100.00;101466.69;5007146;28;20452;-71
2024/01/23 02:53:41;;;;;;;15.60;2.28;;;;;;;4.49;100.00;101457.06;5007834;28;20391;-72
2024/01/23 02:56:27;;;;;;;10.38;2.47;;;;;;;4.45;100.00;101460.59;5008948;28;20235;-72
2024/01/23 02:59:15;;;;;;;14.00;2.20;;;;;;;4.46;100.00;101464.97;5010195;28;20953;-74
2024/01/23 03:02:04;;;;;;;12.65;2.45;;;;;;;4.53;100.00;101467.53;5008880;28;20041;-73
2024/01/23 03:04:50;;;;;;;12.85;2.42;;;;;;;4.60;100.00;101472.72;5007632;28;20045;-73
2024/01/23 03:07:36;;;;;;;8.43;2.70;;;;;;;4.62;100.00;101489.28;5005980;28;20136;-73
2024/01/23 03:10:22;;;;;;;9.45;2.40;;;;;;;4.64;100.00;101496.25;5009295;28;20037;-73
2024/01/23 03:13:08;;;;;;;10.57;2.30;;;;;;;4.67;100.00;101497.09;5006631;28;20041;-75
2024/01/23 03:15:54;;;;;;;12.30;2.15;;;;;;;4.70;100.00;101504.97;5009972;28;20037;-75
2024/01/23 03:18:39;;;;;;;19.52;2.88;;;;;;;4.74;100.00;101511.88;5009311;28;20116;-74
2024/01/23 03:21:25;;;;;;;24.23;2.88;;;;;;;4.79;100.00;101516.25;5006534;28;20060;-73
2024/01/23 03:24:14;;;;;;;12.48;2.75;;;;;;;4.82;100.00;101514.44;5013565;28;20037;-74
2024/01/23 03:27:00;;;;;;;17.08;2.63;;;;;;;4.85;100.00;101521.41;5010591;28;20654;-74
2024/01/23 03:29:46;;;;;;;20.23;2.90;;;;;;;4.86;100.00;101534.50;5006936;28;20493;-74
2024/01/23 03:32:32;;;;;;;12.50;2.35;;;;;;;4.89;100.00;101538.84;4996844;28;20084;-74
2024/01/23 03:35:19;;;;;;;12.05;2.53;;;;;;;4.93;100.00;101534.44;5010899;28;20065;-75
2024/01/23 03:38:05;;;;;;;12.65;2.20;;;;;;;4.93;100.00;101543.19;5010181;28;20262;-75
2024/01/23 03:40:51;;;;;;;13.25;2.17;;;;;;;4.97;100.00;101558.00;5007343;28;20060;-75
2024/01/23 03:43:36;;;;;;;10.27;2.40;;;;;;;4.98;100.00;101569.38;5008126;28;20045;-75
2024/01/23 03:46:22;;;;;;;16.23;2.90;;;;;;;4.97;100.00;101555.38;5007427;28;20056;-73
2024/01/23 03:49:08;;;;;;;15.38;2.47;;;;;;;4.99;100.00;101566.75;4993384;28;20654;-75
2024/01/23 03:51:54;;;;;;;9.32;2.10;;;;;;;5.01;100.00;101575.47;5009829;28;20041;-75
2024/01/23 03:54:39;;;;;;;11.80;2.50;;;;;;;5.02;100.00;101592.94;5011268;28;20042;-74
2024/01/23 03:57:28;;;;;;;13.63;2.25;;;;;;;5.06;100.00;101596.41;5007470;28;20041;-73
2024/01/23 04:00:14;;;;;;;16.13;2.88;;;;;;;5.07;100.00;101603.41;5015220;28;20123;-75
2024/01/23 04:03:00;;;;;;;16.63;3.35;;;;;;;5.08;100.00;101620.03;5011813;28;20116;-75
2024/01/23 04:05:46;;;;;;;14.35;2.83;;;;;;;5.09;100.00;101614.78;5016510;28;20041;-73
2024/01/23 04:08:31;;;;;;;17.50;2.80;;;;;;;5.09;100.00;101624.38;5013794;28;20130;-74
2024/01/23 04:11:17;;;;;;;11.48;2.05;;;;;;;5.09;100.00;101627.91;5016571;28;20041;-73
2024/01/23 04:14:03;;;;;;;13.18;3.47;;;;;;;5.10;100.00;101636.63;5009471;28;20069;-74
2024/01/23 04:16:49;;;;;;;15.73;3.03;;;;;;;5.09;100.00;101630.53;5013492;28;20061;-74
2024/01/23 04:19:36;;;;;;;11.45;2.38;;;;;;;5.12;100.00;101645.38;5012179;28;20041;-74
2024/01/23 04:22:22;;;;;;;9.93;2.85;;;;;;;5.13;100.00;101647.13;5014177;28;20048;-74
2024/01/23 04:25:12;;;;;;;12.52;2.42;;;;;;;5.14;100.00;101651.47;5001061;28;20424;-75
2024/01/23 04:27:57;;;;;;;15.50;2.83;;;;;;;5.14;100.00;101669.84;5014605;28;20037;-75
2024/01/23 04:30:43;;;;;;;15.32;2.35;;;;;;;5.13;100.00;101665.50;5011570;28;20033;-74
2024/01/23 04:33:29;;;;;;;18.58;2.80;;;;;;;5.16;100.00;101675.94;5016244;28;20049;-75
2024/01/23 04:36:16;;;;;;;12.07;2.50;;;;;;;5.17;100.00;101680.31;5013753;28;20063;-72
2024/01/23 04:39:02;;;;;;;19.25;2.67;;;;;;;5.19;100.00;101686.44;5013155;28;20053;-74
2024/01/23 04:41:48;;;;;;;21.20;2.75;;;;;;;5.21;100.00;101700.41;5013825;28;20041;-75
2024/01/23 04:44:34;;;;;;;21.58;3.60;;;;;;;5.22;100.00;101704.78;4989806;28;20049;-73
2024/01/23 04:47:19;;;;;;;13.65;2.47;;;;;;;5.23;100.00;101709.13;5011668;28;20148;-74
2024/01/23 04:50:06;;;;;;;15.57;2.55;;;;;;;5.24;100.00;101713.50;5014198;28;20030;-75
2024/01/23 04:52:56;;;;;;;13.02;2.33;;;;;;;5.26;100.00;101719.63;5012264;28;20598;-75
2024/01/23 04:55:41;;;;;;;18.70;3.22;;;;;;;5.25;100.00;101701.25;5008820;28;20132;-75
2024/01/23 04:58:27;;;;;;;17.52;2.78;;;;;;;5.22;100.00;101722.31;4998413;28;20029;-74
2024/01/23 05:01:13;;;;;;;16.35;3.28;;;;;;;5.19;100.00;101746.81;4996330;28;20101;-74
2024/01/23 05:03:59;;;;;;;21.92;3.00;;;;;;;5.14;100.00;101741.59;5013337;28;22042;-76
2024/01/23 05:06:45;;;;;;;17.15;2.95;;;;;;;5.10;100.00;101752.13;5004948;28;20177;-75
2024/01/23 05:09:31;;;;;;;17.02;3.03;;;;;;;5.05;100.00;101767.91;5014886;28;20068;-74
2024/01/23 05:12:17;;;;;;;13.85;2.97;;;;;;;5.00;100.00;101775.84;5013247;28;20033;-75
2024/01/23 05:15:04;;;;;;;15.77;3.00;;;;;;;4.97;100.00;101785.47;5012925;28;20037;-75
2024/01/23 05:17:49;;;;;;;11.18;2.90;;;;;;;4.89;100.00;101793.41;5010401;28;20045;-75
2024/01/23 05:20:36;;;;;;;16.60;2.30;;;;;;;4.85;100.00;101799.56;5010315;28;20045;-72
2024/01/23 05:23:24;;;;;;;16.25;3.15;;;;;;;4.80;100.00;101803.97;5010935;28;20060;-74
2024/01/23 05:26:09;;;;;;;19.83;3.45;;;;;;;4.74;100.00;101808.34;5012759;28;20863;-74
2024/01/23 05:28:55;;;;;;;18.05;3.65;;;;;;;4.70;100.00;101806.66;5008090;28;20203;-74
2024/01/23 05:31:43;;;;;;;14.35;2.90;;;;;;;4.65;100.00;101808.41;5012571;28;20091;-72
2024/01/23 05:34:29;;;;;;;17.42;3.72;;;;;;;4.62;100.00;101824.16;5010902;28;20044;-73
2024/01/23 05:37:15;;;;;;;14.00;3.00;;;;;;;4.61;100.00;101820.69;4997082;28;20361;-74
2024/01/23 05:40:03;;;;;;;15.45;3.42;;;;;;;4.56;100.00;101835.56;5022645;28;20045;-74
2024/01/23 05:42:49;;;;;;;15.23;2.80;;;;;;;4.55;100.00;101851.28;5012441;28;20160;-75
2024/01/23 05:45:35;;;;;;;17.88;3.40;;;;;;;4.54;100.00;101854.78;5013052;28;20520;-76
2024/01/23 05:48:21;;;;;;;17.25;2.92;;;;;;;4.52;100.00;101849.56;5013118;28;20891;-75
2024/01/23 05:51:07;;;;;;;23.25;3.40;;;;;;;4.50;100.00;101867.06;5008489;28;20037;-75
2024/01/23 05:53:53;;;;;;;28.65;3.22;;;;;;;4.48;100.00;101876.69;4994606;28;20060;-75
2024/01/23 05:56:38;;;;;;;19.15;3.25;;;;;;;4.42;100.00;101881.94;5011734;28;20681;-74
2024/01/23 05:59:24;;;;;;;18.23;3.33;;;;;;;4.42;100.00;101887.19;5011330;28;20393;-75
2024/01/23 06:02:10;;;;;;;13.60;3.78;;;;;;;4.37;100.00;101891.56;5019760;28;20097;-75
2024/01/23 06:04:56;;;;;;;14.25;3.47;;;;;;;4.32;100.00;101902.06;5010299;28;20041;-75
2024/01/23 06:07:48;;;;;;;18.45;3.17;;;;;;;4.34;100.00;101902.94;5010012;28;20507;-75
2024/01/23 06:10:34;;;;;;;24.33;3.92;;;;;;;4.34;100.00;101897.69;5007594;28;20075;-75
2024/01/23 06:13:20;;;;;;;16.30;2.78;;;;;;;4.34;100.00;101900.31;5018260;28;20566;-74
2024/01/23 06:16:06;;;;;;;15.63;2.78;;;;;;;4.35;100.00;101912.53;5012330;28;20045;-74
2024/01/23 06:18:55;;;;;;;28.05;4.22;;;;;;;4.34;100.00;101913.41;5013896;28;20053;-75
2024/01/23 06:21:40;;;;;;;21.30;2.88;;;;;;;4.32;100.00;101923.91;5027216;28;20495;-75
2024/01/23 06:24:26;;;;;;;19.73;2.78;;;;;;;4.32;100.00;101920.44;5010750;28;20120;-76
2024/01/23 06:27:14;;;;;;;14.88;2.95;;;;;;;4.31;100.00;101923.94;5015186;28;20044;-76
2024/01/23 06:30:00;;;;;;;21.30;3.05;;;;;;;4.32;100.00;101923.06;5015281;28;20045;-74
2024/01/23 06:32:49;;;;;;;22.10;3.67;;;;;;;4.30;100.00;101927.44;5015206;28;20091;-75
2024/01/23 06:35:34;;;;;;;21.23;3.55;;;;;;;4.31;100.00;101932.66;5011614;28;20037;-74
2024/01/23 06:38:20;;;;;;;17.42;2.65;;;;;;;4.30;100.00;101940.53;5002295;28;20064;-75
2024/01/23 06:41:06;;;;;;;14.88;2.92;;;;;;;4.31;100.00;101942.28;4994464;28;20051;-74
2024/01/23 06:43:52;;;;;;;18.85;3.30;;;;;;;4.29;100.00;101941.38;4981646;28;20053;-75
2024/01/23 06:46:37;;;;;;;15.85;3.10;;;;;;;4.28;100.00;101939.66;4998513;28;20034;-75
2024/01/23 06:49:24;;;;;;;22.55;3.65;;;;;;;4.26;100.00;101955.41;4998302;28;20038;-74
2024/01/23 06:52:12;;;;;;;15.00;3.13;;;;;;;4.27;100.00;101956.25;4980255;28;20104;-75
2024/01/23 06:54:58;;;;;;;16.88;2.97;;;;;;;4.26;100.00;101958.03;4998671;28;20116;-75
2024/01/23 06:57:44;;;;;;;18.67;3.83;;;;;;;4.24;100.00;101949.28;4982326;28;20041;-74
2024/01/23 07:00:29;;;;;;;16.42;3.45;;;;;;;4.26;100.00;101946.66;4997663;28;20103;-76
2024/01/23 07:03:15;;;;;;;20.65;3.30;;;;;;;4.25;100.00;101963.25;4996149;28;20038;-74
2024/01/23 07:06:01;;;;;;;17.95;3.17;;;;;;;4.20;100.00;101964.13;4982583;28;20038;-75
2024/01/23 07:08:47;;;;;;;14.73;2.95;;;;;;;4.18;100.00;101967.63;4998014;28;22028;-75
2024/01/23 07:11:32;;;;;;;14.82;3.15;;;;;;;4.17;100.00;101985.13;4985582;28;20041;-75
2024/01/23 07:14:18;;;;;;;22.02;3.47;;;;;;;4.16;100.00;101985.09;4983257;28;20437;-74
2024/01/23 07:17:04;;;;;;;20.08;3.78;;;;;;;4.15;100.00;102001.72;4999654;28;20046;-74
2024/01/23 07:19:50;;;;;;;21.35;3.25;;;;;;;4.15;100.00;101999.94;4998259;28;20050;-74
2024/01/23 07:22:36;;;;;;;20.55;3.47;;;;;;;4.11;100.00;101990.34;4997315;28;20034;-74
2024/01/23 07:25:21;;;;;;;20.58;3.58;;;;;;;4.08;100.00;102000.81;4983873;28;20034;-73
2024/01/23 07:28:07;;;;;;;20.33;3.58;;;;;;;4.10;100.00;102021.81;4982729;28;20042;-73
2024/01/23 07:30:53;;;;;;;18.60;3.08;;;;;;;4.06;100.00;102024.44;4982724;28;20136;-74
2024/01/23 07:33:39;;;;;;;16.83;2.70;;;;;;;4.06;100.00;102034.03;4986885;28;20033;-74
2024/01/23 07:36:27;;;;;;;21.75;3.28;;;;;;;4.05;100.00;102037.53;4985407;28;20080;-74
2024/01/23 07:39:14;;;;;;;17.63;3.35;;;;;;;4.04;100.00;102041.88;5013587;28;20069;-74
2024/01/23 07:42:00;;;;;;;20.52;3.28;;;;;;;4.04;100.00;102041.03;5013906;28;20060;-74
2024/01/23 07:44:47;;;;;;;14.82;2.70;;;;;;;4.03;100.00;102058.50;5015741;28;20038;-73
2024/01/23 07:47:32;;;;;;;21.63;3.65;;;;;;;4.04;100.00;102067.25;5016074;28;20116;-74
2024/01/23 07:50:18;;;;;;;22.02;3.47;;;;;;;4.02;100.00;102061.09;5015212;28;20090;-74
2024/01/23 07:53:04;;;;;;;14.88;3.33;;;;;;;4.01;100.00;102064.59;5013594;28;20115;-74
2024/01/23 07:55:50;;;;;;;24.90;3.50;;;;;;;4.00;100.00;102075.94;5017163;28;20081;-74
2024/01/23 07:58:36;;;;;;;28.92;4.57;;;;;;;3.98;100.00;102077.72;5014632;28;20037;-74
2024/01/23 08:01:25;;;;;;;14.88;3.67;;;;;;;3.99;100.00;102075.09;5010736;28;20041;-75
2024/01/23 08:04:10;;;;;;;23.23;3.55;;;;;;;3.98;100.00;102069.84;5014508;28;20174;-75
2024/01/23 08:06:56;;;;;;;22.23;3.58;;;;;;;3.98;100.00;102078.56;5017401;28;20491;-75
2024/01/23 08:09:42;;;;;;;13.73;3.40;;;;;;;3.98;100.00;102077.72;5014529;28;20100;-74
2024/01/23 08:12:48;;;;;;;19.13;2.95;;;;;;;3.97;100.00;102083.81;5014218;28;20895;-74
2024/01/23 08:15:34;;;;;;;19.48;3.17;;;;;;;3.95;100.00;102089.06;5016664;28;20048;-74
2024/01/23 08:18:20;;;;;;;16.38;3.35;;;;;;;3.92;100.00;102094.31;5013149;28;20041;-74
2024/01/23 08:21:07;;;;;;;21.92;3.67;;;;;;;3.92;100.00;102105.63;5015325;28;20059;-75
2024/01/23 08:23:53;;;;;;;18.27;3.00;;;;;;;3.92;100.00;102105.63;5017942;28;20428;-73
2024/01/23 08:26:39;;;;;;;18.48;3.05;;;;;;;3.93;100.00;102107.38;5016484;28;20067;-75
2024/01/23 08:29:25;;;;;;;13.00;2.90;;;;;;;3.93;100.00;102115.25;5012985;28;20142;-75
2024/01/23 08:32:11;;;;;;;15.25;3.40;;;;;;;3.94;100.00;102117.00;5011855;28;20121;-75
2024/01/23 08:34:56;;;;;;;19.67;3.35;;;;;;;3.93;100.00;102106.53;5014660;28;20046;-74
2024/01/23 08:37:42;;;;;;;13.32;2.75;;;;;;;3.96;100.00;102134.50;5013650;28;20084;-74
2024/01/23 08:40:28;;;;;;;18.27;3.10;;;;;;;3.96;100.00;102137.97;5017043;28;20385;-73
2024/01/23 08:43:14;;;;;;;19.63;3.83;;;;;;;3.98;100.00;102124.88;5017595;28;20143;-73
2024/01/23 08:45:59;;;;;;;20.38;3.20;;;;;;;4.00;100.00;102110.03;5014437;28;20057;-73
2024/01/23 08:48:45;;;;;;;14.23;2.70;;;;;;;4.04;100.00;102114.41;5018297;28;20407;-74
2024/01/23 08:51:34;;;;;;;21.00;3.40;;;;;;;4.05;100.00;102134.50;5030162;28;20037;-74
2024/01/23 08:54:20;;;;;;;19.02;3.92;;;;;;;4.07;100.00;102130.13;5015498;28;20029;-74
2024/01/23 08:57:06;;;;;;;17.35;3.50;;;;;;;4.12;100.00;102127.50;5030075;28;20037;-75
2024/01/23 08:59:52;;;;;;;20.98;3.58;;;;;;;4.13;100.00;102132.78;5016606;28;20079;-75
2024/01/23 09:02:38;;;;;;;20.63;3.25;;;;;;;4.16;100.00;102130.16;5013928;28;20456;-74
2024/01/23 09:05:26;;;;;;;20.33;3.72;;;;;;;4.19;100.00;102129.28;5013319;28;20037;-74
2024/01/23 09:08:12;;;;;;;20.92;3.10;;;;;;;4.21;100.00;102125.78;5003411;28;20071;-74
2024/01/23 09:10:58;;;;;;;20.73;2.90;;;;;;;4.25;100.00;102126.66;5016127;28;20663;-75
2024/01/23 09:13:44;;;;;;;30.75;3.85;;;;;;;4.30;100.00;102127.56;5015921;28;20049;-75
2024/01/23 09:16:29;;;;;;;19.33;3.63;;;;;;;4.33;100.00;102139.81;5017372;28;20033;-75
2024/01/23 09:19:15;;;;;;;17.92;2.65;;;;;;;4.37;100.00;102152.06;5012867;28;20505;-75
2024/01/23 09:22:01;;;;;;;24.85;4.05;;;;;;;4.44;100.00;102148.56;5018481;28;20064;-75
2024/01/23 09:24:47;;;;;;;15.80;3.05;;;;;;;4.47;100.00;102166.91;5002129;28;20061;-75
2024/01/23 09:27:33;;;;;;;17.52;3.35;;;;;;;4.56;100.00;102165.16;5015835;28;20131;-75
2024/01/23 09:30:19;;;;;;;22.17;3.15;;;;;;;4.62;100.00;102175.66;5016292;28;20033;-75
2024/01/23 09:33:05;;;;;;;17.98;2.90;;;;;;;4.68;100.00;102196.66;5016525;28;20152;-75
2024/01/23 09:35:51;;;;;;;16.90;2.95;;;;;;;4.75;100.00;102192.31;5018686;28;20037;-75
2024/01/23 09:38:37;;;;;;;12.32;2.67;;;;;;;4.76;100.00;102189.66;5016429;28;20060;-75
2024/01/23 09:41:23;;;;;;;20.23;3.80;;;;;;;4.75;100.00;102176.56;5018375;28;20111;-75
2024/01/23 09:44:11;;;;;;;17.65;3.78;;;;;;;4.76;100.00;102181.78;5015419;28;20073;-74
2024/01/23 09:46:57;;;;;;;14.45;3.20;;;;;;;4.80;100.00;102194.94;5015496;28;20138;-76
2024/01/23 09:49:43;;;;;;;20.33;3.70;;;;;;;4.83;100.00;102185.31;5017614;28;20056;-75
2024/01/23 09:52:30;;;;;;;26.52;4.82;;;;;;;4.88;100.00;102180.06;5016672;28;20635;-76
2024/01/23 09:55:16;;;;;;;15.35;2.70;;;;;;;4.91;100.00;102187.94;5010080;28;20690;-75
2024/01/23 09:58:03;;;;;;;16.00;2.78;;;;;;;4.94;100.00;102185.31;5012202;28;20051;-77
2024/01/23 10:00:53;;;;;;;16.02;2.95;;;;;;;4.98;100.00;102183.56;5015838;28;20036;-76
2024/01/23 10:03:44;;;;;;;18.63;3.78;;;;;;;5.02;100.00;102190.56;5016885;28;20177;-76
2024/01/23 10:06:33;;;;;;;18.02;3.35;;;;;;;5.05;100.00;102193.19;5000965;28;20148;-75
2024/01/23 10:09:21;;;;;;;21.00;3.17;;;;;;;5.08;100.00;102193.19;5015604;28;20049;-75
2024/01/23 10:12:07;;;;;;;20.63;2.97;;;;;;;5.11;100.00;102197.53;5015679;28;20041;-75
2024/01/23 10:14:58;;;;;;;18.13;4.32;;;;;;;5.11;100.00;102194.91;5013929;28;20126;-75
2024/01/23 10:17:45;;;;;;;19.25;2.90;;;;;;;5.14;100.00;102202.81;5013650;28;20041;-76
2024/01/23 10:20:31;;;;;;;16.27;2.78;;;;;;;5.16;100.00;102203.66;5013333;28;20045;-75
2024/01/23 10:23:18;;;;;;;18.52;2.97;;;;;;;5.16;100.00;102201.03;5013888;28;20172;-76
2024/01/23 10:26:07;;;;;;;11.85;2.47;;;;;;;5.15;100.00;102194.94;5015153;28;20516;-76
2024/01/23 10:28:53;;;;;;;15.15;2.85;;;;;;;5.17;100.00;102192.28;5016616;28;20068;-75
2024/01/23 10:31:38;;;;;;;9.82;2.60;;;;;;;5.22;100.00;102193.16;5015918;28;20649;-75
2024/01/23 10:34:25;;;;;;;16.15;2.72;;;;;;;5.25;100.00;102171.28;5015907;28;20127;-74
2024/01/23 10:37:12;;;;;;;15.75;3.17;;;;;;;5.28;100.00;102177.41;5029847;28;20029;-74
2024/01/23 10:39:58;;;;;;;15.48;2.70;;;;;;;5.31;100.00;102171.25;5007105;28;20046;-74
2024/01/23 10:42:44;;;;;;;16.35;2.72;;;;;;;5.35;100.00;102166.88;4959538;28;20119;-75
2024/01/23 10:45:31;;;;;;;17.33;2.78;;;;;;;5.39;100.00;102172.13;4982607;28;20526;-74
2024/01/23 10:48:17;;;;;;;16.80;2.92;;;;;;;5.43;100.00;102183.50;4996717;28;20041;-74
2024/01/23 10:51:18;;;;;;;18.92;2.67;;;;;;;5.49;100.00;102169.50;4984249;28;20045;-75
2024/01/23 10:54:17;;;;;;;14.20;2.85;;;;;;;5.52;100.00;102170.34;5002280;28;20511;-75
2024/01/23 10:57:13;;;;;;;19.00;2.63;;;;;;;5.54;100.00;102167.69;4997357;28;20083;-75
2024/01/23 11:00:04;;;;;;;13.63;2.65;;;;;;;5.57;100.00;102168.56;5001191;28;20724;-75
2024/01/23 11:02:58;;;;;;;21.38;3.30;;;;;;;5.58;100.00;102180.81;4971923;28;20030;-75
2024/01/23 11:05:58;;;;;;;12.07;2.22;;;;;;;5.62;100.00;102191.34;5000659;28;20037;-75
2024/01/23 11:09:11;;;;;;;12.25;2.17;;;;;;;5.66;100.00;102193.94;5000807;28;20129;-76
2024/01/23 11:12:26;;;;;;;13.60;2.45;;;;;;;5.67;100.00;102189.56;5000230;28;20045;-75
2024/01/23 11:15:14;;;;;;;19.95;3.28;;;;;;;5.66;100.00;102188.69;4997486;28;21052;-75
2024/01/23 11:18:26;;;;;;;21.42;3.08;;;;;;;5.67;100.00;102198.31;4970296;28;20530;-75
2024/01/23 11:21:13;;;;;;;16.27;3.05;;;;;;;5.67;100.00;102179.06;4985444;28;20045;-75
2024/01/23 11:24:01;;;;;;;13.23;2.35;;;;;;;5.68;100.00;102179.03;4984180;28;20049;-75
2024/01/23 11:26:54;;;;;;;19.55;3.38;;;;;;;5.66;100.00;102188.69;5001237;28;20030;-75
2024/01/23 11:29:40;;;;;;;17.25;2.85;;;;;;;5.65;100.00;102180.78;4968968;28;20029;-75
2024/01/23 11:32:28;;;;;;;18.88;2.75;;;;;;;5.66;100.00;102169.44;4996530;28;20037;-74
2024/01/23 11:35:14;;;;;;;14.82;2.65;;;;;;;5.69;100.00;102161.53;4999827;28;20037;-75
2024/01/23 11:38:02;;;;;;;18.02;2.55;;;;;;;5.70;100.00;102160.63;5001006;28;20034;-74
2024/01/23 11:40:58;;;;;;;13.80;2.58;;;;;;;5.70;100.00;102152.75;5002158;28;20432;-75
2024/01/23 11:43:46;;;;;;;23.00;3.40;;;;;;;5.70;100.00;102144.88;4982272;28;20053;-75
2024/01/23 11:46:35;;;;;;;16.23;2.60;;;;;;;5.70;100.00;102139.63;4996079;28;20049;-74
2024/01/23 11:49:21;;;;;;;19.00;2.78;;;;;;;5.71;100.00;102131.72;4998658;28;20103;-74
2024/01/23 11:52:10;;;;;;;19.00;3.15;;;;;;;5.75;100.00;102144.84;4996644;28;20117;-74
2024/01/23 11:54:56;;;;;;;12.45;2.17;;;;;;;5.74;100.00;102136.09;4987051;28;20561;-74
2024/01/23 11:57:41;;;;;;;15.98;3.63;;;;;;;5.74;100.00;102128.22;4971087;28;20049;-74
2024/01/23 12:00:27;;;;;;;15.18;2.67;;;;;;;5.76;100.00;102139.59;4999840;28;20048;-75
2024/01/23 12:03:20;;;;;;;13.25;2.33;;;;;;;5.82;100.00;102131.69;4993539;28;20402;-74
2024/01/23 12:06:06;;;;;;;11.70;2.73;;;;;;;5.83;100.00;102122.91;4986291;28;20042;-74
2024/01/23 12:08:52;;;;;;;12.45;2.95;;;;;;;5.85;100.00;102113.25;4997044;28;20330;-73
2024/01/23 12:11:40;;;;;;;10.68;2.20;;;;;;;5.87;100.00;102115.88;4978801;28;20050;-75
2024/01/23 12:14:27;;;;;;;10.68;2.05;;;;;;;5.90;100.00;102112.38;4982704;28;20038;-74
2024/01/23 12:17:13;;;;;;;16.55;2.55;;;;;;;5.93;100.00;102107.06;4995492;28;20046;-74
2024/01/23 12:20:04;;;;;;;20.15;3.00;;;;;;;5.93;100.00;102105.34;4981610;28;20739;-75
2024/01/23 12:22:49;;;;;;;10.75;3.03;;;;;;;5.93;100.00;102120.22;4983481;28;20448;-74
2024/01/23 12:25:35;;;;;;;13.15;2.60;;;;;;;5.94;100.00;102116.75;4989212;28;20073;-75
2024/01/23 12:28:23;;;;;;;12.20;2.30;;;;;;;5.97;100.00;102108.81;5001238;28;20030;-75
2024/01/23 12:31:12;;;;;;;18.27;3.05;;;;;;;6.01;100.00;102120.19;4986546;28;20041;-75
2024/01/23 12:33:58;;;;;;;17.35;2.42;;;;;;;6.04;100.00;102109.72;5001195;28;20038;-76
2024/01/23 12:36:49;;;;;;;16.95;2.63;;;;;;;6.11;100.00;102098.25;4999900;28;20038;-76
2024/01/23 12:39:35;;;;;;;16.98;2.22;;;;;;;6.15;100.00;102091.22;4974176;28;20106;-76
2024/01/23 12:42:21;;;;;;;12.75;2.35;;;;;;;6.18;100.00;102104.34;5021002;28;20041;-77
2024/01/23 12:45:14;;;;;;;10.48;2.17;;;;;;;6.19;100.00;102088.56;5020934;28;20102;-76
2024/01/23 12:48:00;;;;;;;15.13;2.83;;;;;;;6.22;100.00;102090.28;5018942;28;20166;-74